Time;durP1;ratioP1;P1;durP2;ratioP2;P2;SDS_P1;SDS_P2;PMS_P1;PMS_P2;Temp;Humidity;BMP_temperature;BMP_pressure;BME280_temperature;BME280_humidity;BME280_pressure;Samples;Min_cycle;Max_cycle;Signal;HPM_P1;HPM_P2
2020/12/26 00:01:36;;;;;;;0.85;0.55;;;2.00;99.90;;;;;;5027909;28;20404;-71
2020/12/26 00:04:03;;;;;;;2.92;1.02;;;1.90;99.90;;;;;;5031385;28;20547;-69
2020/12/26 00:06:30;;;;;;;7.20;2.53;;;2.10;99.90;;;;;;5025080;28;20087;-69
2020/12/26 00:08:57;;;;;;;4.75;1.05;;;2.20;99.90;;;;;;5031593;28;20045;-66
2020/12/26 00:11:23;;;;;;;2.85;1.10;;;2.30;99.90;;;;;;5025744;28;20056;-67
2020/12/26 00:13:50;;;;;;;5.65;2.65;;;2.40;99.90;;;;;;5028104;28;20081;-68
2020/12/26 00:16:18;;;;;;;4.18;1.60;;;2.40;99.90;;;;;;5025527;28;20264;-68
2020/12/26 00:18:45;;;;;;;3.85;1.48;;;2.50;99.90;;;;;;5027600;28;20489;-68
2020/12/26 00:21:16;;;;;;;1.42;1.10;;;2.50;99.90;;;;;;5028454;28;20206;-70
2020/12/26 00:23:43;;;;;;;1.50;0.65;;;2.60;99.90;;;;;;5030847;28;20061;-69
2020/12/26 00:26:14;;;;;;;3.70;1.45;;;2.70;99.90;;;;;;5028160;28;20056;-67
2020/12/26 00:28:41;;;;;;;2.33;1.55;;;2.60;99.90;;;;;;5026640;28;20103;-67
2020/12/26 00:31:27;;;;;;;1.00;0.77;;;2.60;99.90;;;;;;5028687;28;20107;-69
2020/12/26 00:33:53;;;;;;;2.80;1.17;;;2.70;99.90;;;;;;5028540;28;20080;-68
2020/12/26 00:36:20;;;;;;;2.85;1.67;;;2.70;99.90;;;;;;5027387;28;20049;-67
2020/12/26 00:38:46;;;;;;;4.15;1.25;;;2.80;99.90;;;;;;5025784;28;20447;-67
2020/12/26 00:41:13;;;;;;;4.53;1.73;;;2.90;99.90;;;;;;5033950;28;20041;-69
2020/12/26 00:43:40;;;;;;;1.77;1.35;;;2.90;99.90;;;;;;5030652;28;20065;-70
2020/12/26 00:46:06;;;;;;;4.75;1.70;;;2.90;99.90;;;;;;5031552;28;20053;-68
2020/12/26 00:48:33;;;;;;;4.22;1.58;;;2.90;99.90;;;;;;5041240;28;20138;-67
2020/12/26 00:51:00;;;;;;;3.75;1.55;;;2.90;99.90;;;;;;5029043;28;20124;-67
2020/12/26 00:53:27;;;;;;;7.95;2.25;;;2.90;99.90;;;;;;5022450;28;20049;-67
2020/12/26 00:55:53;;;;;;;2.05;1.88;;;2.80;99.90;;;;;;5036788;28;20057;-68
2020/12/26 00:58:19;;;;;;;2.92;1.70;;;2.80;99.90;;;;;;5024958;28;20041;-68
2020/12/26 01:00:46;;;;;;;2.65;1.50;;;2.80;99.90;;;;;;5034359;28;20159;-71
2020/12/26 01:03:39;;;;;;;4.50;1.95;;;2.70;99.90;;;;;;5019784;28;20104;-67
2020/12/26 01:06:15;;;;;;;6.20;1.40;;;2.70;99.90;;;;;;5029749;28;20127;-67
2020/12/26 01:08:42;;;;;;;2.50;1.65;;;2.60;99.90;;;;;;5027909;28;20136;-69
2020/12/26 01:11:09;;;;;;;2.50;1.60;;;2.50;99.90;;;;;;5026146;28;20041;-67
2020/12/26 01:13:36;;;;;;;4.22;1.30;;;2.50;99.90;;;;;;5028759;28;20063;-66
2020/12/26 01:16:02;;;;;;;3.00;2.08;;;2.60;99.90;;;;;;5030604;28;20052;-68
2020/12/26 01:18:29;;;;;;;2.50;1.83;;;2.60;99.90;;;;;;5023234;28;20622;-68
2020/12/26 01:20:56;;;;;;;6.50;2.10;;;2.70;99.90;;;;;;5027943;28;20045;-66
2020/12/26 01:23:23;;;;;;;3.25;2.05;;;2.70;99.90;;;;;;5024893;28;20049;-69
2020/12/26 01:25:50;;;;;;;4.30;2.33;;;2.70;99.90;;;;;;5029687;28;20040;-68
2020/12/26 01:28:17;;;;;;;5.95;1.73;;;2.80;99.90;;;;;;5029245;28;20439;-69
2020/12/26 01:30:44;;;;;;;5.00;2.10;;;2.80;99.90;;;;;;5025492;28;20445;-69
2020/12/26 01:33:10;;;;;;;6.07;1.70;;;2.80;99.90;;;;;;5033408;28;20159;-68
2020/12/26 01:35:36;;;;;;;5.05;2.33;;;2.80;99.90;;;;;;5028791;28;20041;-67
2020/12/26 01:38:03;;;;;;;5.00;2.45;;;2.80;99.90;;;;;;5035033;28;20479;-70
2020/12/26 01:40:29;;;;;;;4.97;2.80;;;2.80;99.90;;;;;;5032349;28;20469;-68
2020/12/26 01:42:57;;;;;;;2.90;1.23;;;2.80;99.90;;;;;;5027691;28;20045;-68
2020/12/26 01:45:24;;;;;;;1.83;1.33;;;2.80;99.90;;;;;;5033505;28;20103;-70
2020/12/26 01:47:52;;;;;;;2.22;1.33;;;2.80;99.90;;;;;;5027061;28;20053;-68
2020/12/26 01:50:18;;;;;;;1.98;1.38;;;2.80;99.90;;;;;;5029543;28;20106;-68
2020/12/26 01:52:47;;;;;;;1.95;1.25;;;2.70;99.90;;;;;;5025424;28;20049;-70
2020/12/26 01:55:16;;;;;;;2.10;1.55;;;2.70;99.90;;;;;;5023352;28;20408;-69
2020/12/26 01:57:53;;;;;;;1.30;1.20;;;2.70;99.90;;;;;;5033096;28;20072;-68
2020/12/26 02:00:38;;;;;;;3.38;1.42;;;2.60;99.90;;;;;;5030980;28;20055;-68
2020/12/26 02:03:05;;;;;;;1.77;1.35;;;2.70;99.90;;;;;;5025255;28;20049;-69
2020/12/26 02:05:32;;;;;;;1.85;1.38;;;2.70;99.90;;;;;;5033171;28;20501;-70
2020/12/26 02:08:03;;;;;;;1.63;1.13;;;2.70;99.90;;;;;;5031121;28;20127;-66
2020/12/26 02:10:30;;;;;;;4.07;2.10;;;2.70;99.90;;;;;;5030124;28;20063;-66
2020/12/26 02:12:57;;;;;;;1.65;1.30;;;2.60;99.90;;;;;;5034485;28;20120;-67
2020/12/26 02:15:23;;;;;;;25.08;1.83;;;2.60;99.90;;;;;;5027746;28;20128;-71
2020/12/26 02:17:50;;;;;;;2.33;1.45;;;2.60;99.90;;;;;;5032234;28;20061;-72
2020/12/26 02:20:31;;;;;;;4.22;1.35;;;2.60;99.90;;;;;;5023387;28;20073;-66
2020/12/26 02:23:01;;;;;;;2.15;1.48;;;2.60;99.90;;;;;;5024861;28;20152;-69
2020/12/26 02:25:28;;;;;;;5.40;1.27;;;2.60;99.90;;;;;;5027034;28;20150;-69
2020/12/26 02:27:55;;;;;;;2.00;1.50;;;2.60;99.90;;;;;;5027369;28;20471;-67
2020/12/26 02:30:22;;;;;;;2.42;1.33;;;2.60;99.90;;;;;;5027225;28;20098;-69
2020/12/26 02:32:49;;;;;;;1.75;1.33;;;2.50;99.90;;;;;;5025988;28;20117;-68
2020/12/26 02:35:15;;;;;;;6.55;1.77;;;2.50;99.90;;;;;;5024671;28;20053;-69
2020/12/26 02:37:42;;;;;;;1.75;1.48;;;2.60;99.90;;;;;;5028784;28;20049;-69
2020/12/26 02:40:08;;;;;;;1.55;1.13;;;2.50;99.90;;;;;;5025050;28;20096;-68
2020/12/26 02:42:36;;;;;;;7.07;1.60;;;2.50;99.90;;;;;;5023621;28;20061;-68
2020/12/26 02:45:02;;;;;;;4.18;2.13;;;2.50;99.90;;;;;;5027273;28;20045;-68
2020/12/26 02:47:29;;;;;;;2.17;1.50;;;2.40;99.90;;;;;;5022967;28;21494;-69
2020/12/26 02:49:55;;;;;;;2.55;2.05;;;2.50;99.90;;;;;;5034970;28;20501;-69
2020/12/26 02:52:22;;;;;;;2.70;1.55;;;2.50;99.90;;;;;;5023018;28;20546;-69
2020/12/26 02:54:49;;;;;;;3.22;1.70;;;2.50;99.90;;;;;;5029733;28;20037;-67
2020/12/26 02:57:15;;;;;;;1.73;1.30;;;2.50;99.90;;;;;;5028734;28;20033;-69
2020/12/26 02:59:43;;;;;;;1.73;1.40;;;2.50;99.90;;;;;;5028104;28;20052;-69
2020/12/26 03:02:09;;;;;;;2.05;1.50;;;2.50;99.90;;;;;;5023853;28;20050;-69
2020/12/26 03:04:36;;;;;;;1.98;1.38;;;2.50;99.90;;;;;;5023610;28;20116;-68
2020/12/26 03:07:02;;;;;;;1.48;1.13;;;2.50;99.90;;;;;;5021665;28;20041;-71
2020/12/26 03:09:29;;;;;;;2.25;1.58;;;2.50;99.90;;;;;;5027846;28;20372;-68
2020/12/26 03:11:55;;;;;;;3.92;1.23;;;2.60;99.90;;;;;;5022751;28;20076;-71
2020/12/26 03:14:22;;;;;;;2.63;1.25;;;2.50;99.90;;;;;;5031543;28;20152;-69
2020/12/26 03:16:49;;;;;;;2.97;1.50;;;2.50;99.90;;;;;;5025111;28;20575;-70
2020/12/26 03:19:15;;;;;;;3.28;1.25;;;2.50;99.90;;;;;;5031485;28;20103;-66
2020/12/26 03:21:42;;;;;;;2.92;0.98;;;2.60;99.90;;;;;;5034316;28;20071;-69
2020/12/26 03:24:08;;;;;;;3.47;0.93;;;2.60;99.90;;;;;;5021958;28;20163;-66
2020/12/26 03:26:36;;;;;;;1.45;1.35;;;2.60;99.90;;;;;;5024278;28;20106;-66
2020/12/26 03:29:02;;;;;;;1.50;0.90;;;2.60;99.90;;;;;;5027955;28;20444;-70
2020/12/26 03:31:28;;;;;;;1.63;0.82;;;2.60;99.90;;;;;;5027478;28;20324;-69
2020/12/26 03:33:55;;;;;;;2.47;1.38;;;2.70;99.90;;;;;;5030869;28;20124;-71
2020/12/26 03:36:21;;;;;;;0.77;0.75;;;2.60;99.90;;;;;;5020787;28;20049;-70
2020/12/26 03:38:49;;;;;;;2.00;0.85;;;2.70;99.90;;;;;;5029120;28;20046;-71
2020/12/26 03:41:15;;;;;;;3.47;1.33;;;2.70;99.90;;;;;;5029311;28;20451;-67
2020/12/26 03:43:41;;;;;;;2.58;1.50;;;2.60;99.90;;;;;;5027578;28;20037;-66
2020/12/26 03:46:08;;;;;;;1.30;1.17;;;2.60;99.90;;;;;;5032649;28;20198;-70
2020/12/26 03:48:34;;;;;;;1.33;0.70;;;2.60;99.90;;;;;;5027632;28;20131;-68
2020/12/26 03:51:01;;;;;;;1.85;1.27;;;2.60;99.90;;;;;;5034543;28;20045;-67
2020/12/26 03:53:27;;;;;;;1.25;0.98;;;2.70;99.90;;;;;;5024845;28;20405;-68
2020/12/26 03:55:53;;;;;;;2.67;1.50;;;2.70;99.90;;;;;;5031422;28;20170;-72
2020/12/26 03:58:20;;;;;;;3.00;1.00;;;2.70;99.90;;;;;;5034781;28;20060;-70
2020/12/26 04:00:46;;;;;;;1.67;1.10;;;2.70;99.90;;;;;;5029505;28;20114;-68
2020/12/26 04:03:13;;;;;;;2.00;1.25;;;2.70;99.90;;;;;;5035507;28;20071;-70
2020/12/26 04:05:39;;;;;;;3.70;0.93;;;2.80;99.90;;;;;;5028308;28;20469;-67
2020/12/26 04:08:05;;;;;;;1.30;0.93;;;2.80;99.90;;;;;;5026844;28;20542;-67
2020/12/26 04:10:32;;;;;;;1.52;1.00;;;2.70;99.90;;;;;;5024617;28;20578;-73
2020/12/26 04:12:59;;;;;;;1.50;0.98;;;2.70;99.90;;;;;;5027393;28;20098;-70
2020/12/26 04:15:25;;;;;;;0.93;0.70;;;2.70;99.90;;;;;;5029164;28;20060;-66
2020/12/26 04:17:51;;;;;;;1.38;0.80;;;2.70;99.90;;;;;;5027947;28;20485;-66
2020/12/26 04:20:18;;;;;;;2.22;1.15;;;2.70;99.90;;;;;;5027484;28;21461;-68
2020/12/26 04:22:44;;;;;;;1.48;0.82;;;2.70;99.90;;;;;;5026489;28;20068;-68
2020/12/26 04:25:12;;;;;;;1.08;0.88;;;2.70;99.90;;;;;;5026393;28;20125;-67
2020/12/26 04:27:38;;;;;;;2.83;1.10;;;2.70;99.90;;;;;;5022521;28;20107;-68
2020/12/26 04:30:05;;;;;;;1.77;1.25;;;2.60;99.90;;;;;;5036518;28;20059;-66
2020/12/26 04:32:32;;;;;;;0.70;0.70;;;2.60;99.90;;;;;;5024611;28;20143;-71
2020/12/26 04:34:58;;;;;;;2.10;1.13;;;2.60;99.90;;;;;;5035625;28;20049;-66
2020/12/26 04:37:25;;;;;;;1.88;1.15;;;2.60;99.90;;;;;;5028145;28;20118;-67
2020/12/26 04:39:51;;;;;;;2.95;1.20;;;2.60;99.90;;;;;;5033678;28;20037;-66
2020/12/26 04:42:20;;;;;;;1.40;1.15;;;2.50;99.90;;;;;;5029670;28;20552;-68
2020/12/26 04:44:46;;;;;;;1.00;0.82;;;2.50;99.90;;;;;;5026091;28;20049;-66
2020/12/26 04:47:14;;;;;;;1.90;1.25;;;2.50;99.90;;;;;;5027399;28;20091;-68
2020/12/26 04:49:44;;;;;;;1.17;1.02;;;2.50;99.90;;;;;;5025270;28;20485;-66
2020/12/26 04:52:16;;;;;;;2.40;1.00;;;2.40;99.90;;;;;;5024825;28;20077;-69
2020/12/26 04:54:43;;;;;;;1.70;1.10;;;2.50;99.90;;;;;;5032091;28;20045;-69
2020/12/26 04:57:10;;;;;;;1.33;0.95;;;2.50;99.90;;;;;;5023958;28;20155;-69
2020/12/26 04:59:38;;;;;;;1.25;0.80;;;2.50;99.90;;;;;;5030349;28;20041;-67
2020/12/26 05:02:05;;;;;;;1.83;1.60;;;2.40;99.90;;;;;;5025939;28;20366;-67
2020/12/26 05:04:32;;;;;;;6.18;1.23;;;2.30;99.90;;;;;;5024264;28;20122;-67
2020/12/26 05:06:59;;;;;;;2.30;1.48;;;2.20;99.90;;;;;;5027485;28;20557;-71
2020/12/26 05:09:25;;;;;;;1.73;1.63;;;2.10;99.90;;;;;;5025366;28;20073;-67
2020/12/26 05:11:59;;;;;;;2.20;1.60;;;2.00;99.90;;;;;;5026502;28;20046;-65
2020/12/26 05:14:31;;;;;;;1.40;1.30;;;2.00;99.90;;;;;;5026014;28;20144;-66
2020/12/26 05:16:58;;;;;;;4.03;1.10;;;1.90;99.90;;;;;;5028503;28;20041;-68
2020/12/26 05:19:24;;;;;;;2.35;1.25;;;1.80;99.90;;;;;;5033692;28;20041;-73
2020/12/26 05:21:56;;;;;;;1.75;1.10;;;1.80;99.90;;;;;;5030144;28;20722;-67
2020/12/26 05:24:22;;;;;;;1.75;1.13;;;1.90;99.90;;;;;;5028919;28;20042;-70
2020/12/26 05:26:52;;;;;;;2.13;1.45;;;1.90;99.90;;;;;;5033076;28;20048;-66
2020/12/26 05:29:20;;;;;;;1.35;1.25;;;2.00;99.90;;;;;;5025411;28;20730;-68
2020/12/26 05:32:03;;;;;;;2.78;1.30;;;2.00;99.90;;;;;;5029722;28;21083;-69
2020/12/26 05:34:45;;;;;;;3.15;1.27;;;2.00;99.90;;;;;;5029645;28;20094;-69
2020/12/26 05:37:16;;;;;;;2.35;1.10;;;2.00;99.90;;;;;;5027289;28;20049;-69
2020/12/26 05:39:43;;;;;;;1.80;1.30;;;2.00;99.90;;;;;;5037411;28;20420;-70
2020/12/26 05:42:18;;;;;;;1.27;1.17;;;1.90;99.90;;;;;;5025548;28;20045;-66
2020/12/26 05:44:44;;;;;;;1.63;0.90;;;1.90;99.90;;;;;;5027683;28;20048;-67
2020/12/26 05:47:11;;;;;;;1.88;1.30;;;1.90;99.90;;;;;;5034040;28;20392;-67
2020/12/26 05:49:39;;;;;;;3.15;1.90;;;1.90;99.90;;;;;;5027054;28;20049;-69
2020/12/26 05:52:11;;;;;;;1.20;1.02;;;1.90;99.90;;;;;;5032144;28;20084;-67
2020/12/26 05:54:50;;;;;;;1.25;0.85;;;1.80;99.90;;;;;;5023926;28;20199;-68
2020/12/26 05:57:17;;;;;;;2.58;1.17;;;1.80;99.90;;;;;;5030168;28;20053;-67
2020/12/26 05:59:50;;;;;;;1.10;1.02;;;1.80;99.90;;;;;;5031511;28;20469;-70
2020/12/26 06:02:20;;;;;;;1.08;0.60;;;1.80;99.90;;;;;;5026411;28;20090;-71
2020/12/26 06:05:00;;;;;;;1.23;0.82;;;1.80;99.90;;;;;;5028972;28;20052;-67
2020/12/26 06:07:32;;;;;;;1.00;0.88;;;1.80;99.90;;;;;;5028244;28;20575;-69
2020/12/26 06:10:00;;;;;;;1.73;0.70;;;1.80;99.90;;;;;;5027783;28;20049;-68
2020/12/26 06:12:29;;;;;;;2.08;1.15;;;1.80;99.90;;;;;;5028022;28;20062;-68
2020/12/26 06:14:57;;;;;;;1.20;0.90;;;1.80;99.90;;;;;;5034360;28;20033;-73
2020/12/26 06:17:26;;;;;;;3.08;1.05;;;1.80;99.90;;;;;;5027670;28;20128;-68
2020/12/26 06:20:03;;;;;;;3.42;0.80;;;1.80;99.90;;;;;;5035544;28;20049;-70
2020/12/26 06:22:50;;;;;;;1.60;1.15;;;1.80;99.90;;;;;;5026520;28;20080;-71
2020/12/26 06:25:22;;;;;;;1.48;0.95;;;1.80;99.90;;;;;;5030302;28;20091;-66
2020/12/26 06:27:51;;;;;;;1.05;0.70;;;1.80;99.90;;;;;;5049215;28;20053;-68
2020/12/26 06:30:21;;;;;;;0.47;0.30;;;1.70;99.90;;;;;;5022009;28;20085;-67
2020/12/26 06:32:49;;;;;;;0.68;0.50;;;1.70;99.90;;;;;;5023955;28;20136;-69
2020/12/26 06:35:17;;;;;;;1.85;0.70;;;1.60;99.90;;;;;;5026277;28;20049;-66
2020/12/26 06:37:44;;;;;;;0.43;0.38;;;1.60;99.90;;;;;;5024790;28;20568;-67
2020/12/26 06:40:29;;;;;;;1.10;0.30;;;1.70;99.90;;;;;;5026286;28;20045;-68
2020/12/26 06:42:57;;;;;;;2.95;0.93;;;1.60;99.90;;;;;;5022764;28;20156;-68
2020/12/26 06:45:29;;;;;;;1.85;0.73;;;1.70;99.90;;;;;;5024962;28;20037;-68
2020/12/26 06:47:56;;;;;;;2.35;2.15;;;1.60;99.90;;;;;;5034395;28;20385;-70
2020/12/26 06:50:32;;;;;;;1.88;0.73;;;1.60;99.90;;;;;;5027317;28;20151;-70
2020/12/26 06:52:59;;;;;;;0.90;0.40;;;1.60;99.90;;;;;;5031194;28;20147;-68
2020/12/26 06:55:40;;;;;;;1.20;0.90;;;1.60;99.90;;;;;;5025286;28;20187;-65
2020/12/26 06:58:22;;;;;;;2.72;0.65;;;1.60;99.90;;;;;;5023161;28;20740;-66
2020/12/26 07:00:49;;;;;;;0.82;0.50;;;1.60;99.90;;;;;;5022696;28;20093;-68
2020/12/26 07:03:24;;;;;;;3.72;1.67;;;1.50;99.90;;;;;;5025768;28;20048;-68
2020/12/26 07:05:52;;;;;;;1.08;0.98;;;1.50;99.90;;;;;;5027156;28;20041;-68
2020/12/26 07:08:27;;;;;;;3.00;1.10;;;1.50;99.90;;;;;;5026595;28;20060;-68
2020/12/26 07:10:55;;;;;;;0.95;0.93;;;1.50;99.90;;;;;;5023134;28;20050;-67
2020/12/26 07:13:51;;;;;;;1.23;1.13;;;1.50;99.90;;;;;;5024815;28;20134;-66
2020/12/26 07:16:46;;;;;;;2.45;1.42;;;1.50;99.90;;;;;;5032415;28;20048;-67
2020/12/26 07:19:28;;;;;;;4.10;1.73;;;1.50;99.90;;;;;;5029056;28;20591;-69
2020/12/26 07:22:20;;;;;;;1.58;1.42;;;1.50;99.90;;;;;;5027222;28;20052;-69
2020/12/26 07:24:54;;;;;;;2.30;1.15;;;1.50;99.90;;;;;;5029678;28;20384;-68
2020/12/26 07:27:25;;;;;;;0.80;0.80;;;1.50;99.90;;;;;;5035327;28;20059;-68
2020/12/26 07:30:12;;;;;;;1.33;0.93;;;1.50;99.90;;;;;;5029042;28;20583;-70
2020/12/26 07:32:47;;;;;;;2.40;1.05;;;1.50;99.90;;;;;;5032681;28;20526;-69
2020/12/26 07:35:20;;;;;;;1.55;0.75;;;1.40;99.90;;;;;;5032773;28;20095;-71
2020/12/26 07:37:53;;;;;;;7.75;1.17;;;1.30;99.90;;;;;;5027964;28;20051;-66
2020/12/26 07:40:39;;;;;;;1.58;1.15;;;1.30;99.90;;;;;;5030385;28;20099;-68
2020/12/26 07:43:14;;;;;;;1.05;0.70;;;1.20;99.90;;;;;;5033510;28;20130;-66
2020/12/26 07:45:43;;;;;;;1.15;0.88;;;1.10;99.90;;;;;;5026953;28;20048;-68
2020/12/26 07:48:10;;;;;;;1.10;0.90;;;1.10;99.90;;;;;;5034853;28;20049;-71
2020/12/26 07:50:40;;;;;;;1.20;0.70;;;1.10;99.90;;;;;;5027718;28;20719;-67
2020/12/26 07:53:09;;;;;;;1.63;0.90;;;1.00;99.90;;;;;;5033005;28;20068;-66
2020/12/26 07:55:36;;;;;;;3.15;1.20;;;1.10;99.90;;;;;;5028622;28;20354;-66
2020/12/26 07:58:11;;;;;;;6.75;0.90;;;1.10;99.90;;;;;;5027535;28;20767;-67
2020/12/26 08:00:40;;;;;;;0.90;0.65;;;1.10;99.90;;;;;;5039321;28;20710;-68
2020/12/26 08:03:09;;;;;;;2.53;1.23;;;1.20;99.90;;;;;;5031980;28;20044;-68
2020/12/26 08:05:45;;;;;;;1.33;0.80;;;1.20;99.90;;;;;;5032091;28;20053;-67
2020/12/26 08:08:20;;;;;;;2.38;1.45;;;1.20;99.90;;;;;;5032591;28;20037;-68
2020/12/26 08:10:54;;;;;;;2.58;1.38;;;1.20;99.90;;;;;;5026381;28;20505;-67
2020/12/26 08:13:21;;;;;;;2.10;1.20;;;1.30;99.90;;;;;;5025572;28;20123;-66
2020/12/26 08:15:47;;;;;;;3.78;1.88;;;1.30;99.90;;;;;;5027803;28;20841;-66
2020/12/26 08:18:19;;;;;;;1.15;1.05;;;1.30;99.90;;;;;;5031344;28;20515;-69
2020/12/26 08:20:46;;;;;;;2.58;1.10;;;1.20;99.90;;;;;;5027327;28;20029;-66
2020/12/26 08:23:13;;;;;;;2.00;1.70;;;1.20;99.90;;;;;;5033069;28;20158;-71
2020/12/26 08:25:39;;;;;;;1.85;1.50;;;1.20;99.90;;;;;;5030571;28;20041;-68
2020/12/26 08:28:09;;;;;;;2.05;0.77;;;1.20;99.90;;;;;;5033966;28;20045;-69
2020/12/26 08:30:37;;;;;;;1.73;1.27;;;1.20;99.90;;;;;;5025998;28;20053;-67
2020/12/26 08:33:09;;;;;;;2.92;0.75;;;1.30;99.90;;;;;;5032764;28;20146;-71
2020/12/26 08:35:44;;;;;;;1.10;1.00;;;1.30;99.90;;;;;;5029123;28;20037;-66
2020/12/26 08:38:22;;;;;;;1.38;0.88;;;1.40;99.90;;;;;;5027987;28;20038;-67
2020/12/26 08:41:00;;;;;;;0.80;0.70;;;1.40;99.90;;;;;;5025948;28;20055;-67
2020/12/26 08:43:27;;;;;;;1.98;1.15;;;1.40;99.90;;;;;;5033931;28;20057;-66
2020/12/26 08:45:53;;;;;;;1.15;0.70;;;1.40;99.90;;;;;;5029035;28;20045;-69
2020/12/26 08:48:22;;;;;;;1.00;0.90;;;1.50;99.90;;;;;;5032614;28;20053;-68
2020/12/26 08:50:59;;;;;;;1.73;0.82;;;1.50;99.90;;;;;;5025841;28;20769;-66
2020/12/26 08:53:33;;;;;;;;;;;1.50;99.90;;;;;;5026731;28;20424;-68
2020/12/26 08:56:00;;;;;;;1.40;0.75;;;1.50;99.90;;;;;;5028985;28;20483;-68
2020/12/26 08:58:31;;;;;;;0.85;0.82;;;1.50;99.90;;;;;;5023744;28;20497;-68
2020/12/26 09:01:01;;;;;;;2.85;0.80;;;1.50;99.90;;;;;;5036389;28;20516;-69
2020/12/26 09:03:30;;;;;;;1.33;0.80;;;1.50;99.90;;;;;;5029645;28;20057;-68
2020/12/26 09:05:59;;;;;;;0.40;0.32;;;1.50;99.90;;;;;;5028332;28;20057;-66
2020/12/26 09:08:28;;;;;;;0.60;0.60;;;1.50;99.90;;;;;;5030744;28;20390;-69
2020/12/26 09:11:04;;;;;;;0.60;0.60;;;1.50;99.90;;;;;;5025442;28;20049;-67
2020/12/26 09:13:31;;;;;;;0.55;0.45;;;1.50;99.90;;;;;;5031977;28;20068;-66
2020/12/26 09:16:03;;;;;;;0.90;0.68;;;1.50;99.90;;;;;;5033734;28;20512;-69
2020/12/26 09:18:45;;;;;;;0.55;0.50;;;1.50;99.90;;;;;;5025423;28;20052;-68
2020/12/26 09:21:29;;;;;;;1.15;0.70;;;1.50;99.90;;;;;;5030634;28;20053;-69
2020/12/26 09:23:57;;;;;;;2.05;0.65;;;1.50;99.90;;;;;;5028867;28;20049;-66
2020/12/26 09:26:29;;;;;;;0.55;0.47;;;1.50;99.90;;;;;;5026074;28;20546;-70
2020/12/26 09:28:57;;;;;;;0.82;0.40;;;1.50;99.90;;;;;;5024263;28;20045;-68
2020/12/26 09:31:28;;;;;;;1.02;0.77;;;1.50;99.90;;;;;;5026223;28;20049;-69
2020/12/26 09:33:57;;;;;;;1.92;0.88;;;1.50;99.90;;;;;;5031440;28;20041;-67
2020/12/26 09:36:25;;;;;;;1.92;0.50;;;1.60;99.90;;;;;;5031892;28;20056;-75
2020/12/26 09:38:52;;;;;;;1.08;0.63;;;1.50;99.90;;;;;;5023046;28;20602;-67
2020/12/26 09:41:24;;;;;;;0.75;0.50;;;1.50;99.90;;;;;;5030762;28;20512;-68
2020/12/26 09:43:55;;;;;;;1.00;0.82;;;1.50;99.90;;;;;;5023812;28;20107;-67
2020/12/26 09:46:22;;;;;;;1.33;0.60;;;1.50;99.90;;;;;;5024954;28;20076;-69
2020/12/26 09:48:49;;;;;;;1.48;1.02;;;1.40;99.90;;;;;;5029514;28;20405;-68
2020/12/26 09:51:21;;;;;;;1.02;0.65;;;1.40;99.90;;;;;;5031071;28;20049;-70
2020/12/26 09:53:49;;;;;;;0.77;0.60;;;1.40;99.90;;;;;;5028686;28;20136;-70
2020/12/26 09:56:17;;;;;;;0.65;0.60;;;1.40;99.90;;;;;;5030051;28;20056;-67
2020/12/26 09:58:45;;;;;;;1.42;0.68;;;1.40;99.90;;;;;;5021399;28;20038;-71
2020/12/26 10:01:13;;;;;;;0.45;0.45;;;1.40;99.90;;;;;;5024758;28;20137;-68
2020/12/26 10:03:41;;;;;;;1.92;0.80;;;1.40;99.90;;;;;;5031968;28;20143;-67
2020/12/26 10:06:13;;;;;;;0.60;0.50;;;1.40;99.90;;;;;;5028848;28;20049;-67
2020/12/26 10:08:39;;;;;;;1.98;1.10;;;1.30;99.90;;;;;;5026895;28;20064;-67
2020/12/26 10:11:06;;;;;;;0.90;0.70;;;1.20;99.90;;;;;;5026402;28;20098;-67
2020/12/26 10:13:32;;;;;;;0.98;0.75;;;1.20;99.90;;;;;;5026262;28;20627;-70
2020/12/26 10:15:59;;;;;;;1.08;0.70;;;1.20;99.90;;;;;;5023895;28;20194;-67
2020/12/26 10:18:25;;;;;;;1.20;0.82;;;1.10;99.90;;;;;;5025750;28;20052;-68
2020/12/26 10:20:52;;;;;;;0.95;0.75;;;1.10;99.90;;;;;;5026925;28;20422;-67
2020/12/26 10:23:18;;;;;;;0.90;0.60;;;1.10;99.90;;;;;;5028691;28;20067;-67
2020/12/26 10:25:48;;;;;;;0.65;0.57;;;1.10;99.90;;;;;;5027616;28;20049;-72
2020/12/26 10:28:17;;;;;;;0.60;0.30;;;1.10;99.90;;;;;;5026597;28;20042;-71
2020/12/26 10:30:43;;;;;;;1.00;0.55;;;1.20;99.90;;;;;;5022834;28;20138;-69
2020/12/26 10:33:10;;;;;;;0.60;0.60;;;1.20;99.90;;;;;;5029611;28;20045;-73
2020/12/26 10:35:37;;;;;;;1.15;0.55;;;1.20;99.90;;;;;;5025405;28;20060;-70
2020/12/26 10:38:04;;;;;;;0.60;0.60;;;1.20;99.90;;;;;;5023749;28;20041;-69
2020/12/26 10:40:30;;;;;;;1.10;0.57;;;1.30;99.90;;;;;;5023361;28;20136;-69
2020/12/26 10:42:57;;;;;;;0.80;0.63;;;1.30;99.90;;;;;;5026343;28;20044;-66
2020/12/26 10:45:24;;;;;;;0.60;0.30;;;1.30;99.90;;;;;;5034358;28;20045;-70
2020/12/26 10:47:50;;;;;;;2.80;0.82;;;1.30;99.90;;;;;;5028126;28;20045;-66
2020/12/26 10:50:17;;;;;;;2.38;0.70;;;1.30;99.90;;;;;;5033335;28;20075;-69
2020/12/26 10:52:46;;;;;;;0.55;0.40;;;1.20;99.90;;;;;;5024571;28;20049;-71
2020/12/26 10:55:16;;;;;;;1.38;0.82;;;1.20;99.90;;;;;;5023851;28;20914;-73
2020/12/26 10:57:43;;;;;;;0.47;0.35;;;1.20;99.90;;;;;;5024065;28;20590;-69
2020/12/26 11:00:13;;;;;;;0.40;0.32;;;1.20;99.90;;;;;;5028782;28;20049;-71
2020/12/26 11:02:40;;;;;;;;;;;1.20;99.90;;;;;;5021579;28;20405;-67
2020/12/26 11:05:06;;;;;;;0.88;0.73;;;1.20;99.90;;;;;;5025298;28;19980;-70
2020/12/26 11:07:33;;;;;;;1.98;1.13;;;1.20;99.90;;;;;;5025795;28;20053;-69
2020/12/26 11:10:00;;;;;;;0.90;0.80;;;1.30;99.90;;;;;;5029785;28;20048;-68
2020/12/26 11:12:27;;;;;;;0.65;0.60;;;1.30;99.90;;;;;;5024483;28;20052;-66
2020/12/26 11:14:54;;;;;;;0.73;0.50;;;1.30;99.90;;;;;;5023076;28;20064;-73
2020/12/26 11:17:20;;;;;;;0.82;0.60;;;1.30;99.90;;;;;;5026537;28;20501;-69
2020/12/26 11:19:46;;;;;;;0.68;0.60;;;1.30;99.90;;;;;;5027956;28;20060;-72
2020/12/26 11:22:13;;;;;;;0.60;0.45;;;1.30;99.90;;;;;;5026544;28;20679;-69
2020/12/26 11:24:39;;;;;;;1.92;0.95;;;1.30;99.90;;;;;;5024467;28;20041;-67
2020/12/26 11:27:06;;;;;;;0.93;0.77;;;1.30;99.90;;;;;;5022061;28;20045;-68
2020/12/26 11:29:32;;;;;;;0.68;0.50;;;1.20;99.90;;;;;;5036601;28;20049;-69
2020/12/26 11:31:59;;;;;;;0.98;0.40;;;1.30;99.90;;;;;;5026063;28;20099;-67
2020/12/26 11:34:25;;;;;;;1.10;0.60;;;1.20;99.90;;;;;;5027141;28;20067;-69
2020/12/26 11:36:51;;;;;;;1.00;0.57;;;1.20;99.90;;;;;;5030287;28;20045;-70
2020/12/26 11:39:18;;;;;;;1.08;0.77;;;1.30;99.90;;;;;;5023050;28;20044;-73
2020/12/26 11:41:45;;;;;;;0.90;0.63;;;1.30;99.90;;;;;;5027536;28;20140;-68
2020/12/26 11:44:11;;;;;;;0.60;0.60;;;1.30;99.90;;;;;;5026523;28;20115;-71
2020/12/26 11:46:38;;;;;;;1.02;1.00;;;1.30;99.90;;;;;;5026233;28;20056;-67
2020/12/26 11:49:04;;;;;;;0.93;0.52;;;1.30;99.90;;;;;;5023061;28;20484;-73
2020/12/26 11:51:31;;;;;;;1.42;0.88;;;1.30;99.90;;;;;;5022868;28;20049;-66
2020/12/26 11:53:57;;;;;;;1.67;0.98;;;1.30;99.90;;;;;;5029326;28;20389;-69
2020/12/26 11:56:25;;;;;;;1.08;0.80;;;1.30;99.90;;;;;;5024710;28;20060;-70
2020/12/26 11:58:52;;;;;;;2.97;1.27;;;1.30;99.90;;;;;;5021353;28;20081;-66
2020/12/26 12:01:19;;;;;;;1.58;1.20;;;1.30;99.90;;;;;;5013573;28;20050;-69
2020/12/26 12:03:46;;;;;;;2.75;1.17;;;1.30;99.90;;;;;;5008928;28;20108;-68
2020/12/26 12:06:13;;;;;;;1.33;0.82;;;1.40;99.90;;;;;;5010004;28;20131;-70
2020/12/26 12:08:43;;;;;;;2.38;1.00;;;1.40;99.90;;;;;;5015917;28;20049;-70
2020/12/26 12:11:10;;;;;;;0.50;0.50;;;1.40;99.90;;;;;;5027425;28;20057;-67
2020/12/26 12:13:37;;;;;;;1.20;0.57;;;1.50;99.90;;;;;;5032132;28;20049;-72
2020/12/26 12:16:04;;;;;;;2.13;0.77;;;1.50;99.90;;;;;;5027681;28;20049;-69
2020/12/26 12:18:30;;;;;;;0.60;0.60;;;1.50;99.90;;;;;;5028100;28;20131;-69
2020/12/26 12:20:57;;;;;;;2.08;0.80;;;1.50;99.90;;;;;;5033039;28;20049;-72
2020/12/26 12:23:23;;;;;;;1.40;1.27;;;1.50;99.90;;;;;;5026876;28;20491;-69
2020/12/26 12:25:50;;;;;;;2.55;0.98;;;1.50;99.90;;;;;;5027609;28;20053;-67
2020/12/26 12:28:16;;;;;;;1.10;1.00;;;1.50;99.90;;;;;;5030894;28;20136;-72
2020/12/26 12:30:42;;;;;;;1.25;0.57;;;1.50;99.90;;;;;;5028639;28;20381;-69
2020/12/26 12:33:09;;;;;;;0.77;0.63;;;1.50;99.90;;;;;;5032549;28;20056;-67
2020/12/26 12:35:35;;;;;;;0.98;0.80;;;1.50;99.90;;;;;;5030774;28;20061;-68
2020/12/26 12:38:02;;;;;;;1.48;0.85;;;1.40;99.90;;;;;;5035108;28;20396;-66
2020/12/26 12:40:28;;;;;;;3.13;0.80;;;1.40;99.90;;;;;;5024733;28;20131;-69
2020/12/26 12:42:55;;;;;;;0.60;0.50;;;1.40;99.90;;;;;;5025973;28;20553;-69
2020/12/26 12:45:21;;;;;;;4.03;1.65;;;1.40;99.90;;;;;;5033715;28;20073;-71
2020/12/26 12:47:48;;;;;;;0.57;0.45;;;1.50;99.90;;;;;;5029517;28;20432;-72
2020/12/26 12:50:15;;;;;;;1.65;0.55;;;1.50;99.90;;;;;;5034000;28;20474;-71
2020/12/26 12:52:41;;;;;;;1.13;1.02;;;1.40;99.90;;;;;;5028306;28;20045;-70
2020/12/26 12:55:07;;;;;;;2.35;1.70;;;1.40;99.90;;;;;;5031079;28;20364;-68
2020/12/26 12:57:34;;;;;;;1.67;1.20;;;1.40;99.90;;;;;;5029334;28;20751;-70
2020/12/26 13:00:00;;;;;;;2.53;1.10;;;1.40;99.90;;;;;;5026979;28;20440;-74
2020/12/26 13:02:27;;;;;;;1.08;0.95;;;1.40;99.90;;;;;;5034572;28;20372;-67
2020/12/26 13:04:56;;;;;;;1.20;0.82;;;1.40;99.90;;;;;;5028494;28;20610;-71
2020/12/26 13:07:27;;;;;;;1.95;1.75;;;1.50;99.90;;;;;;5025931;28;20049;-66